METAR Data
IDs: Format: Raw Decoded Include TAF

Data at: 0335 UTC 19 Oct 2021

KHRL 190252Z 12005KT 10SM CLR 19/17 A3004 RMK AO2 SLP171 T01940167 53015